createdAt,value
2019-04-11T00:01:58.602Z,9.36
2019-04-11T00:04:30.364Z,9.36
2019-04-11T00:07:01.749Z,9.37
2019-04-11T00:09:52.545Z,9.36
2019-04-11T00:12:24.317Z,9.35
2019-04-11T00:14:55.975Z,9.36
2019-04-11T00:17:28.062Z,9.39
2019-04-11T00:20:00.218Z,9.36
2019-04-11T00:22:31.668Z,9.33
2019-04-11T00:25:03.197Z,9.36
2019-04-11T00:27:35.114Z,9.38
2019-04-11T00:30:10.100Z,9.39
2019-04-11T00:32:41.686Z,9.38
2019-04-11T00:35:13.480Z,9.30
2019-04-11T00:37:45.458Z,9.30
2019-04-11T00:40:18.836Z,9.33
2019-04-11T00:42:51.159Z,9.33
2019-04-11T00:45:24.820Z,9.36
2019-04-11T00:47:57.465Z,9.38
2019-04-11T00:50:31.525Z,9.38
2019-04-11T00:53:03.563Z,9.38
2019-04-11T00:55:36.169Z,9.37
2019-04-11T00:58:07.558Z,9.37
2019-04-11T01:00:39.853Z,9.36
2019-04-11T01:03:11.754Z,9.37
2019-04-11T01:05:43.263Z,9.38
2019-04-11T01:08:15.652Z,9.39
2019-04-11T01:10:47.805Z,9.41
2019-04-11T01:13:19.379Z,9.43
2019-04-11T01:16:03.101Z,9.44
2019-04-11T01:18:34.380Z,9.46
2019-04-11T01:21:06.254Z,9.47
2019-04-11T01:23:37.827Z,9.45
2019-04-11T01:26:09.342Z,9.44
2019-04-11T01:28:40.782Z,9.42
2019-04-11T01:31:13.513Z,9.43
2019-04-11T01:33:46.245Z,9.43
2019-04-11T01:36:18.544Z,9.41
2019-04-11T01:38:54.733Z,9.39
2019-04-11T01:41:26.705Z,9.36
2019-04-11T01:44:02.205Z,9.35
2019-04-11T01:46:31.954Z,9.34
2019-04-11T01:49:10.184Z,9.33
2019-04-11T01:51:42.176Z,9.28
2019-04-11T01:54:13.840Z,9.24
2019-04-11T01:56:45.714Z,9.19
2019-04-11T01:59:17.416Z,9.16
2019-04-11T02:02:07.532Z,9.13
2019-04-11T02:04:52.299Z,9.15
2019-04-11T02:07:24.730Z,9.19
2019-04-11T02:09:56.772Z,9.20
2019-04-11T02:12:29.032Z,9.20
2019-04-11T02:15:00.405Z,9.22
2019-04-11T02:17:32.580Z,9.23
2019-04-11T02:20:06.980Z,9.25
2019-04-11T02:22:57.146Z,9.28
2019-04-11T02:25:47.291Z,9.26
2019-04-11T02:28:20.289Z,9.24
2019-04-11T02:30:55.711Z,9.25
2019-04-11T02:33:27.149Z,9.28
2019-04-11T02:35:58.574Z,9.27
2019-04-11T02:38:30.501Z,9.25
2019-04-11T02:41:03.503Z,9.25
2019-04-11T02:43:38.205Z,9.25
2019-04-11T02:46:19.857Z,9.22
2019-04-11T02:48:42.650Z,9.16
2019-04-11T02:51:15.047Z,9.17
2019-04-11T02:53:47.237Z,9.13
2019-04-11T02:56:19.330Z,9.09
2019-04-11T02:58:52.273Z,9.07
2019-04-11T03:01:26.124Z,9.11
2019-04-11T03:03:59.034Z,9.11
2019-04-11T03:06:30.999Z,9.13
2019-04-11T03:09:02.763Z,9.09
2019-04-11T03:11:34.685Z,9.10
2019-04-11T03:14:07.615Z,9.06
2019-04-11T03:16:53.449Z,9.06
2019-04-11T03:19:29.621Z,9.06
2019-04-11T03:21:47.274Z,9.05
2019-04-11T03:24:19.272Z,9.13
2019-04-11T03:26:52.622Z,9.09
2019-04-11T03:29:26.516Z,9.05
2019-04-11T03:32:51.288Z,9.02
2019-04-11T03:35:20.926Z,9.02
2019-04-11T03:37:26.080Z,9.06
2019-04-11T03:39:57.443Z,9.03
2019-04-11T03:42:29.615Z,9.03
2019-04-11T03:44:50.195Z,9.01
2019-04-11T03:47:34.814Z,9.02
2019-04-11T03:50:05.515Z,9.05
2019-04-11T03:52:30.539Z,9.07
2019-04-11T03:55:05.927Z,9.03
2019-04-11T03:57:39.660Z,9.04
2019-04-11T04:00:14.245Z,8.97
2019-04-11T04:02:55.279Z,8.96
2019-04-11T04:05:30.152Z,8.95
2019-04-11T04:08:06.112Z,8.98
2019-04-11T04:10:39.640Z,8.97
2019-04-11T04:13:16.933Z,8.94
2019-04-11T04:16:19.757Z,8.93
2019-04-11T04:18:58.798Z,8.93
2019-04-11T04:21:51.130Z,8.93
2019-04-11T04:24:32.790Z,8.96
2019-04-11T04:27:05.200Z,8.97
2019-04-11T04:29:38.111Z,8.93
2019-04-11T04:32:12.158Z,8.90
2019-04-11T04:34:48.105Z,8.89
2019-04-11T04:37:26.736Z,8.96
2019-04-11T04:40:23.827Z,9.07
2019-04-11T04:42:49.896Z,9.04
2019-04-11T04:45:21.442Z,9.03
2019-04-11T04:47:59.223Z,9.01
2019-04-11T04:50:30.947Z,8.97
2019-04-11T04:53:05.304Z,8.99
2019-04-11T04:55:41.221Z,9.01
2019-04-11T04:58:15.773Z,9.06
2019-04-11T05:00:53.800Z,9.06
2019-04-11T05:03:29.793Z,9.05
2019-04-11T05:06:11.990Z,9.09
2019-04-11T05:08:49.198Z,9.06
2019-04-11T05:11:23.971Z,9.07
2019-04-11T05:14:00.750Z,9.14
2019-04-11T05:16:37.553Z,9.23
2019-04-11T05:19:13.312Z,9.22
2019-04-11T05:21:47.852Z,9.29
2019-04-11T05:24:24.177Z,9.32
2019-04-11T05:26:57.852Z,9.33
2019-04-11T05:29:34.014Z,9.29
2019-04-11T05:32:07.668Z,9.34
2019-04-11T05:34:42.123Z,9.38
2019-04-11T05:37:17.156Z,9.45
2019-04-11T05:39:50.539Z,9.49
2019-04-11T05:42:26.512Z,9.54
2019-04-11T05:44:59.257Z,9.53
2019-04-11T05:47:35.509Z,9.56
2019-04-11T05:50:28.356Z,9.61
2019-04-11T05:53:05.559Z,9.61
2019-04-11T05:55:45.789Z,9.64
2019-04-11T05:58:24.165Z,9.65
2019-04-11T06:01:14.472Z,9.66
2019-04-11T06:03:50.452Z,9.66
2019-04-11T06:06:42.934Z,9.68
2019-04-11T06:09:23.406Z,9.76
2019-04-11T06:12:03.335Z,9.81
2019-04-11T06:14:47.187Z,9.94
2019-04-11T06:17:23.798Z,10.04
2019-04-11T06:20:27.711Z,10.13
2019-04-11T06:23:19.322Z,10.19
2019-04-11T06:26:14.706Z,10.26
2019-04-11T06:28:49.460Z,10.18
2019-04-11T06:31:42.302Z,10.16
2019-04-11T06:34:17.652Z,10.24
2019-04-11T06:37:09.687Z,10.40
2019-04-11T06:39:56.695Z,10.56
2019-04-11T06:42:39.295Z,10.82
2019-04-11T06:45:31.427Z,10.78
2019-04-11T06:48:22.320Z,10.82
2019-04-11T06:51:17.882Z,10.98
2019-04-11T06:54:11.082Z,11.15
2019-04-11T06:56:48.234Z,11.25
2019-04-11T06:59:38.689Z,11.43
2019-04-11T07:02:19.723Z,11.51
2019-04-11T07:04:55.051Z,11.64
2019-04-11T07:07:34.245Z,11.69
2019-04-11T07:10:11.730Z,11.67
2019-04-11T07:13:12.294Z,11.50
2019-04-11T07:15:52.856Z,11.43
2019-04-11T07:18:35.851Z,11.63
2019-04-11T07:21:13.229Z,11.80
2019-04-11T07:24:05.384Z,11.79
2019-04-11T07:26:45.859Z,11.86
2019-04-11T07:29:51.952Z,11.88
2019-04-11T07:32:27.896Z,12.01
2019-04-11T07:35:19.299Z,11.87
2019-04-11T07:38:03.129Z,12.07
2019-04-11T07:41:06.607Z,11.99
2019-04-11T07:43:58.543Z,11.93
2019-04-11T07:46:45.165Z,12.02
2019-04-11T07:49:24.371Z,12.04
2019-04-11T07:52:02.722Z,12.03
2019-04-11T07:54:39.632Z,12.01
2019-04-11T07:57:22.660Z,11.97
2019-04-11T08:00:13.247Z,11.89
2019-04-11T08:03:10.158Z,11.87
2019-04-11T08:06:22.431Z,11.79
2019-04-11T08:09:13.189Z,11.81
2019-04-11T08:12:08.769Z,11.93
2019-04-11T08:14:59.837Z,12.13
2019-04-11T08:17:41.767Z,12.18
2019-04-11T08:20:37.848Z,12.34
2019-04-11T08:23:16.552Z,12.43
2019-04-11T08:26:16.510Z,12.48
2019-04-11T08:28:59.614Z,12.60
2019-04-11T08:31:54.856Z,12.78
2019-04-11T08:34:27.058Z,12.94
2019-04-11T08:37:27.481Z,12.88
2019-04-11T08:39:59.771Z,13.00
2019-04-11T08:42:50.885Z,13.12
2019-04-11T08:45:23.763Z,13.19
2019-04-11T08:47:58.607Z,13.30
2019-04-11T08:50:32.884Z,13.41
2019-04-11T08:53:22.138Z,13.57
2019-04-11T08:56:01.918Z,13.30
2019-04-11T08:59:04.926Z,13.30
2019-04-11T09:01:36.786Z,13.47
2019-04-11T09:04:23.989Z,13.68
2019-04-11T09:06:56.783Z,13.92
2019-04-11T09:09:47.382Z,13.71
2019-04-11T09:12:20.484Z,14.28
2019-04-11T09:15:10.765Z,14.22
2019-04-11T09:17:58.928Z,14.43
2019-04-11T09:20:40.258Z,14.61
2019-04-11T09:23:14.379Z,14.45
2019-04-11T09:26:03.927Z,14.78
2019-04-11T09:28:39.766Z,16.21
2019-04-11T09:31:33.781Z,18.00
2019-04-11T09:34:23.882Z,18.49
2019-04-11T09:37:17.655Z,18.05
2019-04-11T09:40:23.839Z,18.13
2019-04-11T09:43:24.373Z,18.22
2019-04-11T09:46:18.947Z,18.86
2019-04-11T09:49:27.020Z,18.94
2019-04-11T09:52:04.335Z,18.39
2019-04-11T09:55:04.500Z,16.96
2019-04-11T09:57:41.979Z,16.67
2019-04-11T10:00:43.112Z,16.19
2019-04-11T10:03:25.625Z,15.13
2019-04-11T10:06:15.906Z,14.86
2019-04-11T10:08:52.729Z,14.22
2019-04-11T10:11:56.781Z,14.28
2019-04-11T10:14:31.520Z,14.28
2019-04-11T10:17:24.517Z,14.09
2019-04-11T10:19:58.758Z,14.04
2019-04-11T10:22:49.036Z,14.07
2019-04-11T10:25:25.234Z,14.44
2019-04-11T10:28:31.440Z,14.77
2019-04-11T10:31:22.211Z,15.24
2019-04-11T10:34:13.193Z,16.07
2019-04-11T10:36:49.687Z,16.75
2019-04-11T10:39:55.458Z,16.73
2019-04-11T10:42:28.727Z,16.66
2019-04-11T10:45:20.669Z,16.18
2019-04-11T10:47:55.950Z,15.97
2019-04-11T10:50:45.129Z,15.58
2019-04-11T10:53:17.979Z,15.35
2019-04-11T10:56:08.640Z,15.07
2019-04-11T10:58:51.115Z,14.97
2019-04-11T11:01:42.209Z,14.99
2019-04-11T11:04:27.617Z,15.23
2019-04-11T11:07:13.116Z,15.46
2019-04-11T11:09:56.739Z,15.56
2019-04-11T11:12:43.623Z,15.87
2019-04-11T11:15:31.558Z,15.37
2019-04-11T11:18:49.110Z,15.15
2019-04-11T11:21:06.913Z,15.33
2019-04-11T11:23:56.940Z,15.63
2019-04-11T11:26:35.487Z,15.77
2019-04-11T11:29:45.333Z,15.76
2019-04-11T11:32:33.639Z,16.12
2019-04-11T11:35:37.593Z,15.19
2019-04-11T11:38:19.864Z,15.59
2019-04-11T11:41:10.504Z,15.74
2019-04-11T11:43:43.345Z,16.23
2019-04-11T11:46:40.422Z,16.41
2019-04-11T11:49:35.231Z,16.76
2019-04-11T11:52:09.567Z,17.04
2019-04-11T11:54:46.173Z,16.62
2019-04-11T11:57:40.338Z,17.38
2019-04-11T12:00:23.455Z,18.08
2019-04-11T12:03:05.311Z,18.72
2019-04-11T12:06:03.113Z,20.11
2019-04-11T12:09:00.349Z,19.09
2019-04-11T12:11:32.362Z,20.02
2019-04-11T12:14:43.443Z,19.91
2019-04-11T12:17:52.494Z,20.99
2019-04-11T12:20:31.330Z,22.42
2019-04-11T12:23:07.288Z,22.58
2019-04-11T12:25:47.147Z,23.51
2019-04-11T12:28:38.453Z,21.44
2019-04-11T12:31:11.355Z,23.15
2019-04-11T12:34:20.210Z,22.87
2019-04-11T12:36:53.319Z,23.25
2019-04-11T12:39:44.092Z,21.39
2019-04-11T12:42:25.675Z,20.72
2019-04-11T12:45:28.579Z,19.86
2019-04-11T12:48:01.978Z,18.98
2019-04-11T12:50:51.716Z,18.91
2019-04-11T12:53:34.124Z,18.62
2019-04-11T12:56:28.748Z,18.72
2019-04-11T12:59:03.588Z,19.30
2019-04-11T13:01:53.370Z,18.64
2019-04-11T13:04:50.413Z,18.85
2019-04-11T13:07:51.696Z,18.53
2019-04-11T13:10:26.732Z,16.65
2019-04-11T13:13:20.075Z,16.49
2019-04-11T13:16:12.205Z,17.85
2019-04-11T13:19:02.456Z,18.82
2019-04-11T13:21:57.436Z,18.33
2019-04-11T13:24:59.889Z,17.71
2019-04-11T13:27:39.227Z,17.79
2019-04-11T13:30:29.406Z,18.19
2019-04-11T13:33:04.561Z,18.38
2019-04-11T13:35:55.549Z,17.73
2019-04-11T13:38:46.559Z,18.53
2019-04-11T13:41:35.952Z,18.00
2019-04-11T13:44:15.140Z,17.57
2019-04-11T13:47:02.538Z,18.49
2019-04-11T13:49:48.749Z,16.31
2019-04-11T13:52:39.560Z,16.04
2019-04-11T13:55:32.062Z,15.55
2019-04-11T13:58:18.856Z,15.73
2019-04-11T14:01:01.985Z,15.79
2019-04-11T14:03:58.820Z,16.18
2019-04-11T14:06:40.829Z,17.31
2019-04-11T14:09:38.798Z,17.92
2019-04-11T14:12:15.136Z,18.05
2019-04-11T14:15:06.007Z,17.93
2019-04-11T14:17:52.358Z,18.19
2019-04-11T14:20:58.118Z,18.83
2019-04-11T14:23:37.960Z,18.00
2019-04-11T14:26:31.998Z,17.09
2019-04-11T14:29:19.017Z,16.19
2019-04-11T14:32:00.109Z,15.30
2019-04-11T14:34:45.099Z,14.60
2019-04-11T14:37:38.937Z,14.22
2019-04-11T14:40:41.952Z,14.05
2019-04-11T14:43:43.767Z,14.03
2019-04-11T14:46:36.546Z,13.91
2019-04-11T14:49:13.662Z,14.01
2019-04-11T14:52:25.324Z,14.14
2019-04-11T14:55:00.266Z,14.22
2019-04-11T14:57:55.907Z,14.26
2019-04-11T15:00:37.058Z,14.10
2019-04-11T15:03:36.663Z,13.97
2019-04-11T15:06:31.448Z,13.74
2019-04-11T15:09:28.862Z,13.60
2019-04-11T15:12:10.770Z,13.63
2019-04-11T15:15:20.367Z,13.53
2019-04-11T15:17:57.947Z,13.45
2019-04-11T15:20:54.688Z,12.93
2019-04-11T15:23:25.551Z,12.48
2019-04-11T15:26:16.361Z,12.20
2019-04-11T15:29:07.167Z,12.11
2019-04-11T15:32:06.832Z,11.91
2019-04-11T15:34:46.959Z,11.90
2019-04-11T15:37:36.406Z,11.89
2019-04-11T15:40:12.212Z,11.96
2019-04-11T15:43:05.994Z,11.96
2019-04-11T15:45:42.375Z,12.00
2019-04-11T15:48:40.313Z,11.97
2019-04-11T15:51:46.075Z,11.99
2019-04-11T15:54:43.141Z,12.02
2019-04-11T15:57:32.559Z,12.04
2019-04-11T16:00:27.081Z,12.08
2019-04-11T16:03:18.190Z,12.20
2019-04-11T16:06:11.726Z,12.17
2019-04-11T16:08:46.364Z,12.14
2019-04-11T16:11:52.510Z,12.14
2019-04-11T16:14:32.636Z,12.16
2019-04-11T16:17:36.069Z,12.09
2019-04-11T16:20:22.120Z,11.99
2019-04-11T16:23:18.788Z,11.96
2019-04-11T16:25:55.272Z,11.97
2019-04-11T16:28:56.720Z,11.93
2019-04-11T16:31:40.134Z,11.90
2019-04-11T16:34:55.756Z,11.84
2019-04-11T16:37:27.468Z,11.80
2019-04-11T16:40:29.242Z,11.73
2019-04-11T16:43:07.661Z,11.72
2019-04-11T16:45:57.424Z,11.75
2019-04-11T16:48:31.348Z,11.80
2019-04-11T16:51:05.808Z,11.83
2019-04-11T16:53:38.162Z,11.91
2019-04-11T16:56:12.801Z,11.94
2019-04-11T16:58:50.091Z,11.95
2019-04-11T17:01:23.855Z,11.89
2019-04-11T17:03:56.898Z,11.87
2019-04-11T17:06:45.725Z,11.89
2019-04-11T17:09:31.230Z,11.81
2019-04-11T17:12:03.484Z,11.76
2019-04-11T17:14:37.531Z,11.71
2019-04-11T17:17:15.327Z,11.68
2019-04-11T17:19:45.508Z,11.65
2019-04-11T17:22:18.888Z,11.62
2019-04-11T17:24:51.243Z,11.60
2019-04-11T17:27:23.716Z,11.54
2019-04-11T17:29:56.371Z,11.49
2019-04-11T17:32:28.757Z,11.43
2019-04-11T17:35:02.044Z,11.37
2019-04-11T17:37:34.907Z,11.31
2019-04-11T17:40:07.703Z,11.28
2019-04-11T17:42:39.590Z,11.21
2019-04-11T17:45:11.727Z,11.15
2019-04-11T17:47:44.812Z,11.12
2019-04-11T17:50:18.351Z,11.08
2019-04-11T17:52:50.333Z,11.05
2019-04-11T17:55:24.552Z,11.07
2019-04-11T17:57:57.662Z,11.05
2019-04-11T18:00:32.719Z,11.02
2019-04-11T18:03:05.902Z,10.97
2019-04-11T18:05:38.028Z,10.94
2019-04-11T18:08:10.061Z,10.95
2019-04-11T18:10:42.219Z,10.89
2019-04-11T18:13:14.046Z,10.86
2019-04-11T18:15:45.904Z,10.81
2019-04-11T18:18:17.747Z,10.78
2019-04-11T18:20:52.033Z,10.72
2019-04-11T18:23:24.398Z,10.67
2019-04-11T18:25:56.669Z,10.63
2019-04-11T18:28:29.823Z,10.60
2019-04-11T18:31:02.326Z,10.57
2019-04-11T18:33:36.603Z,10.50
2019-04-11T18:36:09.645Z,10.44
2019-04-11T18:38:41.777Z,10.45
2019-04-11T18:41:14.026Z,10.39
2019-04-11T18:43:47.126Z,10.27
2019-04-11T18:46:20.235Z,10.16
2019-04-11T18:48:54.885Z,10.12
2019-04-11T18:51:27.344Z,10.09
2019-04-11T18:53:59.388Z,10.09
2019-04-11T18:56:31.853Z,10.07
2019-04-11T18:59:04.379Z,10.06
2019-04-11T19:01:39.121Z,10.09
2019-04-11T19:04:12.011Z,10.06
2019-04-11T19:06:44.010Z,10.05
2019-04-11T19:09:22.102Z,10.08
2019-04-11T19:11:54.706Z,10.09
2019-04-11T19:14:31.836Z,10.04
2019-04-11T19:17:04.402Z,9.97
2019-04-11T19:19:48.701Z,9.92
2019-04-11T19:22:32.261Z,9.92
2019-04-11T19:24:54.372Z,10.01
2019-04-11T19:27:26.935Z,10.08
2019-04-11T19:30:02.556Z,10.07
2019-04-11T19:32:35.131Z,10.06
2019-04-11T19:35:17.228Z,10.05
2019-04-11T19:37:50.652Z,10.08
2019-04-11T19:40:30.340Z,10.09
2019-04-11T19:43:03.516Z,10.16
2019-04-11T19:45:40.905Z,10.23
2019-04-11T19:48:15.254Z,10.28
2019-04-11T19:50:47.817Z,10.33
2019-04-11T19:53:20.497Z,10.36
2019-04-11T19:56:18.841Z,10.39
2019-04-11T19:58:51.749Z,10.44
2019-04-11T20:01:25.863Z,10.46
2019-04-11T20:03:58.305Z,10.42
2019-04-11T20:06:32.350Z,10.33
2019-04-11T20:09:06.479Z,10.20
2019-04-11T20:11:39.109Z,10.10
2019-04-11T20:14:16.513Z,10.03
2019-04-11T20:16:51.945Z,9.97
2019-04-11T20:19:27.124Z,9.92
2019-04-11T20:21:59.171Z,9.93
2019-04-11T20:24:31.935Z,10.02
2019-04-11T20:27:04.746Z,10.08
2019-04-11T20:29:37.379Z,10.13
2019-04-11T20:32:12.978Z,10.16
2019-04-11T20:34:45.688Z,10.20
2019-04-11T20:37:18.203Z,10.23
2019-04-11T20:39:50.380Z,10.25
2019-04-11T20:42:26.667Z,10.26
2019-04-11T20:45:02.144Z,10.24
2019-04-11T20:47:43.194Z,10.21
2019-04-11T20:50:16.162Z,10.21
2019-04-11T20:52:54.478Z,10.20
2019-04-11T20:55:26.739Z,10.17
2019-04-11T20:58:09.816Z,10.10
2019-04-11T21:00:50.164Z,10.04
2019-04-11T21:03:14.722Z,9.92
2019-04-11T21:05:47.209Z,9.84
2019-04-11T21:08:22.046Z,9.78
2019-04-11T21:10:55.495Z,9.75
2019-04-11T21:13:30.641Z,9.67
2019-04-11T21:16:03.803Z,9.66
2019-04-11T21:18:42.121Z,9.59
2019-04-11T21:21:14.145Z,9.52
2019-04-11T21:23:52.107Z,9.43
2019-04-11T21:26:24.201Z,9.38
2019-04-11T21:29:00.291Z,9.30
2019-04-11T21:31:32.576Z,9.26
2019-04-11T21:34:12.030Z,9.28
2019-04-11T21:36:44.029Z,9.29
2019-04-11T21:39:25.223Z,9.28
2019-04-11T21:41:57.477Z,9.26
2019-04-11T21:44:37.114Z,9.21
2019-04-11T21:47:09.226Z,9.17
2019-04-11T21:49:48.460Z,9.10
2019-04-11T21:52:20.492Z,9.02
2019-04-11T21:54:55.462Z,8.95
2019-04-11T21:57:27.976Z,8.93
2019-04-11T22:00:14.260Z,8.93
2019-04-11T22:02:46.317Z,8.86
2019-04-11T22:05:18.179Z,8.80
2019-04-11T22:07:50.687Z,8.83
2019-04-11T22:10:30.371Z,8.87
2019-04-11T22:13:09.763Z,8.90
2019-04-11T22:15:42.536Z,8.89
2019-04-11T22:18:16.780Z,8.90
2019-04-11T22:20:48.786Z,8.89
2019-04-11T22:23:21.103Z,8.87
2019-04-11T22:25:56.031Z,8.90
2019-04-11T22:28:28.617Z,8.84
2019-04-11T22:31:09.867Z,8.80
2019-04-11T22:34:00.645Z,8.77
2019-04-11T22:36:33.652Z,8.81
2019-04-11T22:39:08.541Z,8.80
2019-04-11T22:41:41.375Z,8.85
2019-04-11T22:44:14.177Z,8.91
2019-04-11T22:46:47.030Z,8.97
2019-04-11T22:49:19.304Z,8.97
2019-04-11T22:51:51.804Z,9.01
2019-04-11T22:54:23.924Z,8.98
2019-04-11T22:56:56.169Z,8.96
2019-04-11T22:59:28.145Z,8.95
2019-04-11T23:02:16.866Z,8.96
2019-04-11T23:04:47.078Z,8.97
2019-04-11T23:07:22.787Z,8.95
2019-04-11T23:09:55.570Z,8.93
2019-04-11T23:12:30.370Z,8.93
2019-04-11T23:15:03.332Z,8.91
2019-04-11T23:17:39.413Z,8.88
2019-04-11T23:20:14.266Z,8.87
2019-04-11T23:22:56.429Z,8.86
2019-04-11T23:25:28.677Z,8.84
2019-04-11T23:28:00.462Z,8.81
2019-04-11T23:30:32.369Z,8.79
2019-04-11T23:33:10.108Z,8.74
2019-04-11T23:35:42.783Z,8.65
2019-04-11T23:38:23.859Z,8.57
2019-04-11T23:40:55.972Z,8.54
2019-04-11T23:43:30.764Z,8.49
2019-04-11T23:46:03.013Z,8.41
2019-04-11T23:48:38.950Z,8.36
2019-04-11T23:51:11.564Z,8.31
2019-04-11T23:53:49.617Z,8.31
2019-04-11T23:56:22.305Z,8.33
2019-04-11T23:59:01.841Z,8.37
